sensor_id;sensor_type;location;lat;lon;timestamp;P1;durP1;ratioP1;P2;durP2;ratioP2
27847;SDS011;15212;48.830;8.730;2023-01-23T00:01:37;15.35;;;6.95;;
27847;SDS011;15212;48.830;8.730;2023-01-23T00:04:06;19.67;;;7.58;;
27847;SDS011;15212;48.830;8.730;2023-01-23T00:06:37;23.05;;;8.75;;
27847;SDS011;15212;48.830;8.730;2023-01-23T00:09:06;17.65;;;7.05;;
27847;SDS011;15212;48.830;8.730;2023-01-23T00:11:35;17.35;;;7.37;;
27847;SDS011;15212;48.830;8.730;2023-01-23T00:14:03;32.60;;;10.28;;
27847;SDS011;15212;48.830;8.730;2023-01-23T00:16:31;41.42;;;12.58;;
27847;SDS011;15212;48.830;8.730;2023-01-23T00:19:00;18.92;;;7.92;;
27847;SDS011;15212;48.830;8.730;2023-01-23T00:21:28;36.05;;;11.28;;
27847;SDS011;15212;48.830;8.730;2023-01-23T00:23:57;22.67;;;8.15;;
27847;SDS011;15212;48.830;8.730;2023-01-23T00:26:27;40.70;;;13.68;;
27847;SDS011;15212;48.830;8.730;2023-01-23T00:28:58;28.80;;;10.32;;
27847;SDS011;15212;48.830;8.730;2023-01-23T00:31:29;20.85;;;7.83;;
27847;SDS011;15212;48.830;8.730;2023-01-23T00:34:00;23.90;;;9.33;;
27847;SDS011;15212;48.830;8.730;2023-01-23T00:36:36;30.60;;;12.53;;
27847;SDS011;15212;48.830;8.730;2023-01-23T00:39:08;29.12;;;8.45;;
27847;SDS011;15212;48.830;8.730;2023-01-23T00:41:43;59.03;;;9.43;;
27847;SDS011;15212;48.830;8.730;2023-01-23T00:44:13;20.50;;;8.10;;
27847;SDS011;15212;48.830;8.730;2023-01-23T00:46:42;26.42;;;9.55;;
27847;SDS011;15212;48.830;8.730;2023-01-23T00:49:11;17.75;;;7.17;;
27847;SDS011;15212;48.830;8.730;2023-01-23T00:51:41;17.60;;;7.30;;
27847;SDS011;15212;48.830;8.730;2023-01-23T00:54:11;19.57;;;8.23;;
27847;SDS011;15212;48.830;8.730;2023-01-23T00:56:39;18.77;;;7.60;;
27847;SDS011;15212;48.830;8.730;2023-01-23T00:59:08;17.65;;;7.37;;
27847;SDS011;15212;48.830;8.730;2023-01-23T01:01:36;23.65;;;8.98;;
27847;SDS011;15212;48.830;8.730;2023-01-23T01:04:05;24.60;;;8.63;;
27847;SDS011;15212;48.830;8.730;2023-01-23T01:06:33;19.87;;;7.65;;
27847;SDS011;15212;48.830;8.730;2023-01-23T01:09:02;15.72;;;7.08;;
27847;SDS011;15212;48.830;8.730;2023-01-23T01:11:30;21.70;;;7.92;;
27847;SDS011;15212;48.830;8.730;2023-01-23T01:13:59;20.68;;;8.20;;
27847;SDS011;15212;48.830;8.730;2023-01-23T01:16:27;20.55;;;8.75;;
27847;SDS011;15212;48.830;8.730;2023-01-23T01:18:56;24.67;;;9.63;;
27847;SDS011;15212;48.830;8.730;2023-01-23T01:21:24;19.50;;;9.10;;
27847;SDS011;15212;48.830;8.730;2023-01-23T01:23:52;20.97;;;9.00;;
27847;SDS011;15212;48.830;8.730;2023-01-23T01:26:21;15.43;;;6.60;;
27847;SDS011;15212;48.830;8.730;2023-01-23T01:28:51;16.93;;;7.62;;
27847;SDS011;15212;48.830;8.730;2023-01-23T01:31:19;16.62;;;6.97;;
27847;SDS011;15212;48.830;8.730;2023-01-23T01:33:47;18.73;;;7.60;;
27847;SDS011;15212;48.830;8.730;2023-01-23T01:36:17;12.78;;;6.30;;
27847;SDS011;15212;48.830;8.730;2023-01-23T01:38:49;16.65;;;7.00;;
27847;SDS011;15212;48.830;8.730;2023-01-23T01:41:17;16.17;;;6.78;;
27847;SDS011;15212;48.830;8.730;2023-01-23T01:43:46;15.75;;;6.70;;
27847;SDS011;15212;48.830;8.730;2023-01-23T01:46:20;14.80;;;6.90;;
27847;SDS011;15212;48.830;8.730;2023-01-23T01:51:52;14.53;;;6.87;;
27847;SDS011;15212;48.830;8.730;2023-01-23T01:54:34;12.90;;;6.17;;
27847;SDS011;15212;48.830;8.730;2023-01-23T02:02:44;18.37;;;6.97;;
27847;SDS011;15212;48.830;8.730;2023-01-23T02:05:26;18.87;;;7.58;;
27847;SDS011;15212;48.830;8.730;2023-01-23T02:08:10;18.07;;;8.30;;
27847;SDS011;15212;48.830;8.730;2023-01-23T02:10:46;22.87;;;8.38;;
27847;SDS011;15212;48.830;8.730;2023-01-23T02:13:25;17.73;;;8.18;;
27847;SDS011;15212;48.830;8.730;2023-01-23T02:15:58;24.00;;;8.80;;
27847;SDS011;15212;48.830;8.730;2023-01-23T02:18:29;17.40;;;7.97;;
27847;SDS011;15212;48.830;8.730;2023-01-23T02:21:02;23.42;;;8.38;;
27847;SDS011;15212;48.830;8.730;2023-01-23T02:23:36;26.07;;;9.63;;
27847;SDS011;15212;48.830;8.730;2023-01-23T02:26:27;19.25;;;8.25;;
27847;SDS011;15212;48.830;8.730;2023-01-23T02:29:01;17.20;;;8.30;;
27847;SDS011;15212;48.830;8.730;2023-01-23T02:31:31;19.15;;;8.55;;
27847;SDS011;15212;48.830;8.730;2023-01-23T02:33:59;19.17;;;8.00;;
27847;SDS011;15212;48.830;8.730;2023-01-23T02:36:32;24.47;;;9.53;;
27847;SDS011;15212;48.830;8.730;2023-01-23T02:39:05;23.22;;;8.20;;
27847;SDS011;15212;48.830;8.730;2023-01-23T02:41:39;22.05;;;9.60;;
27847;SDS011;15212;48.830;8.730;2023-01-23T02:44:16;22.42;;;8.68;;
27847;SDS011;15212;48.830;8.730;2023-01-23T02:46:47;21.37;;;8.80;;
27847;SDS011;15212;48.830;8.730;2023-01-23T02:49:16;23.80;;;8.85;;
27847;SDS011;15212;48.830;8.730;2023-01-23T02:51:45;19.67;;;8.65;;
27847;SDS011;15212;48.830;8.730;2023-01-23T02:54:15;26.97;;;9.13;;
27847;SDS011;15212;48.830;8.730;2023-01-23T02:56:44;29.18;;;9.48;;
27847;SDS011;15212;48.830;8.730;2023-01-23T02:59:12;34.43;;;9.30;;
27847;SDS011;15212;48.830;8.730;2023-01-23T03:01:59;25.25;;;9.78;;
27847;SDS011;15212;48.830;8.730;2023-01-23T03:04:28;21.80;;;8.60;;
27847;SDS011;15212;48.830;8.730;2023-01-23T03:06:57;25.37;;;9.75;;
27847;SDS011;15212;48.830;8.730;2023-01-23T03:09:25;30.85;;;10.98;;
27847;SDS011;15212;48.830;8.730;2023-01-23T03:11:54;37.78;;;10.08;;
27847;SDS011;15212;48.830;8.730;2023-01-23T03:14:23;31.48;;;10.38;;
27847;SDS011;15212;48.830;8.730;2023-01-23T03:16:51;103.83;;;11.50;;
27847;SDS011;15212;48.830;8.730;2023-01-23T03:19:21;51.10;;;10.65;;
27847;SDS011;15212;48.830;8.730;2023-01-23T03:21:51;33.42;;;10.00;;
27847;SDS011;15212;48.830;8.730;2023-01-23T03:24:20;32.95;;;9.75;;
27847;SDS011;15212;48.830;8.730;2023-01-23T03:26:49;25.50;;;9.65;;
27847;SDS011;15212;48.830;8.730;2023-01-23T03:29:20;40.75;;;10.10;;
27847;SDS011;15212;48.830;8.730;2023-01-23T03:32:08;41.58;;;11.18;;
27847;SDS011;15212;48.830;8.730;2023-01-23T03:34:39;78.25;;;10.30;;
27847;SDS011;15212;48.830;8.730;2023-01-23T03:37:09;41.00;;;10.60;;
27847;SDS011;15212;48.830;8.730;2023-01-23T03:39:40;36.60;;;10.18;;
27847;SDS011;15212;48.830;8.730;2023-01-23T03:42:26;25.90;;;9.95;;
27847;SDS011;15212;48.830;8.730;2023-01-23T03:44:54;40.40;;;9.50;;
27847;SDS011;15212;48.830;8.730;2023-01-23T03:47:22;34.00;;;10.10;;
27847;SDS011;15212;48.830;8.730;2023-01-23T03:49:51;37.63;;;10.80;;
27847;SDS011;15212;48.830;8.730;2023-01-23T03:52:20;30.40;;;10.72;;
27847;SDS011;15212;48.830;8.730;2023-01-23T03:54:48;32.65;;;10.35;;
27847;SDS011;15212;48.830;8.730;2023-01-23T03:57:16;25.82;;;9.30;;
27847;SDS011;15212;48.830;8.730;2023-01-23T03:59:45;33.88;;;10.68;;
27847;SDS011;15212;48.830;8.730;2023-01-23T04:02:14;29.32;;;9.83;;
27847;SDS011;15212;48.830;8.730;2023-01-23T04:04:42;40.83;;;10.08;;
27847;SDS011;15212;48.830;8.730;2023-01-23T04:07:10;28.47;;;10.03;;
27847;SDS011;15212;48.830;8.730;2023-01-23T04:09:39;28.27;;;9.98;;
27847;SDS011;15212;48.830;8.730;2023-01-23T04:12:07;40.40;;;11.68;;
27847;SDS011;15212;48.830;8.730;2023-01-23T04:14:35;35.43;;;12.05;;
27847;SDS011;15212;48.830;8.730;2023-01-23T04:17:04;47.33;;;13.60;;
27847;SDS011;15212;48.830;8.730;2023-01-23T04:19:34;54.53;;;14.68;;
27847;SDS011;15212;48.830;8.730;2023-01-23T04:22:02;38.33;;;11.80;;
27847;SDS011;15212;48.830;8.730;2023-01-23T04:24:31;32.73;;;11.08;;
27847;SDS011;15212;48.830;8.730;2023-01-23T04:26:59;25.95;;;9.93;;
27847;SDS011;15212;48.830;8.730;2023-01-23T04:29:27;46.30;;;12.05;;
27847;SDS011;15212;48.830;8.730;2023-01-23T04:31:56;32.85;;;10.88;;
27847;SDS011;15212;48.830;8.730;2023-01-23T04:34:24;33.15;;;11.95;;
27847;SDS011;15212;48.830;8.730;2023-01-23T04:36:53;36.10;;;12.40;;
27847;SDS011;15212;48.830;8.730;2023-01-23T04:39:21;31.97;;;11.33;;
27847;SDS011;15212;48.830;8.730;2023-01-23T04:41:49;33.90;;;12.30;;
27847;SDS011;15212;48.830;8.730;2023-01-23T04:44:18;33.40;;;12.25;;
27847;SDS011;15212;48.830;8.730;2023-01-23T04:46:47;29.80;;;11.03;;
27847;SDS011;15212;48.830;8.730;2023-01-23T04:49:20;29.25;;;11.33;;
27847;SDS011;15212;48.830;8.730;2023-01-23T04:51:49;32.08;;;11.10;;
27847;SDS011;15212;48.830;8.730;2023-01-23T04:54:19;32.67;;;12.28;;
27847;SDS011;15212;48.830;8.730;2023-01-23T04:56:48;31.87;;;11.65;;
27847;SDS011;15212;48.830;8.730;2023-01-23T04:59:17;32.45;;;11.25;;
27847;SDS011;15212;48.830;8.730;2023-01-23T05:01:46;30.05;;;11.03;;
27847;SDS011;15212;48.830;8.730;2023-01-23T05:04:14;32.85;;;12.55;;
27847;SDS011;15212;48.830;8.730;2023-01-23T05:06:43;35.90;;;12.15;;
27847;SDS011;15212;48.830;8.730;2023-01-23T05:09:11;30.37;;;11.55;;
27847;SDS011;15212;48.830;8.730;2023-01-23T05:11:39;33.98;;;12.85;;
27847;SDS011;15212;48.830;8.730;2023-01-23T05:14:08;30.32;;;11.95;;
27847;SDS011;15212;48.830;8.730;2023-01-23T05:16:37;43.87;;;14.68;;
27847;SDS011;15212;48.830;8.730;2023-01-23T05:19:05;38.02;;;12.30;;
27847;SDS011;15212;48.830;8.730;2023-01-23T05:21:33;33.55;;;11.57;;
27847;SDS011;15212;48.830;8.730;2023-01-23T05:24:02;32.85;;;11.95;;
27847;SDS011;15212;48.830;8.730;2023-01-23T05:26:30;45.98;;;13.15;;
27847;SDS011;15212;48.830;8.730;2023-01-23T05:29:00;35.80;;;12.33;;
27847;SDS011;15212;48.830;8.730;2023-01-23T05:31:28;38.23;;;12.73;;
27847;SDS011;15212;48.830;8.730;2023-01-23T05:33:57;30.37;;;10.98;;
27847;SDS011;15212;48.830;8.730;2023-01-23T05:36:25;40.40;;;12.68;;
27847;SDS011;15212;48.830;8.730;2023-01-23T05:38:54;44.55;;;14.45;;
27847;SDS011;15212;48.830;8.730;2023-01-23T05:41:22;36.70;;;13.28;;
27847;SDS011;15212;48.830;8.730;2023-01-23T05:43:50;79.12;;;23.07;;
27847;SDS011;15212;48.830;8.730;2023-01-23T05:46:19;54.03;;;17.25;;
27847;SDS011;15212;48.830;8.730;2023-01-23T05:48:48;74.25;;;20.52;;
27847;SDS011;15212;48.830;8.730;2023-01-23T05:51:17;141.75;;;32.78;;
27847;SDS011;15212;48.830;8.730;2023-01-23T05:53:45;120.72;;;35.95;;
27847;SDS011;15212;48.830;8.730;2023-01-23T05:56:14;63.17;;;20.92;;
27847;SDS011;15212;48.830;8.730;2023-01-23T05:58:42;39.60;;;14.15;;
27847;SDS011;15212;48.830;8.730;2023-01-23T06:01:11;47.75;;;17.23;;
27847;SDS011;15212;48.830;8.730;2023-01-23T06:03:39;52.08;;;15.32;;
27847;SDS011;15212;48.830;8.730;2023-01-23T06:06:08;38.70;;;13.38;;
27847;SDS011;15212;48.830;8.730;2023-01-23T06:08:36;56.65;;;16.37;;
27847;SDS011;15212;48.830;8.730;2023-01-23T06:11:05;40.50;;;13.88;;
27847;SDS011;15212;48.830;8.730;2023-01-23T06:13:33;39.98;;;14.73;;
27847;SDS011;15212;48.830;8.730;2023-01-23T06:16:02;44.73;;;14.85;;
27847;SDS011;15212;48.830;8.730;2023-01-23T06:18:31;39.15;;;13.80;;
27847;SDS011;15212;48.830;8.730;2023-01-23T06:20:59;33.08;;;10.43;;
27847;SDS011;15212;48.830;8.730;2023-01-23T06:23:29;36.25;;;12.20;;
27847;SDS011;15212;48.830;8.730;2023-01-23T06:25:58;30.00;;;12.23;;
27847;SDS011;15212;48.830;8.730;2023-01-23T06:28:28;31.85;;;11.75;;
27847;SDS011;15212;48.830;8.730;2023-01-23T06:31:00;31.15;;;10.45;;
27847;SDS011;15212;48.830;8.730;2023-01-23T06:33:31;33.30;;;11.65;;
27847;SDS011;15212;48.830;8.730;2023-01-23T06:36:00;26.50;;;10.05;;
27847;SDS011;15212;48.830;8.730;2023-01-23T06:38:32;31.12;;;11.03;;
27847;SDS011;15212;48.830;8.730;2023-01-23T06:41:00;33.67;;;10.98;;
27847;SDS011;15212;48.830;8.730;2023-01-23T06:43:29;35.55;;;11.22;;
27847;SDS011;15212;48.830;8.730;2023-01-23T06:45:57;31.40;;;11.95;;
27847;SDS011;15212;48.830;8.730;2023-01-23T06:48:26;28.87;;;10.88;;
27847;SDS011;15212;48.830;8.730;2023-01-23T06:50:58;25.60;;;10.45;;
27847;SDS011;15212;48.830;8.730;2023-01-23T06:53:26;34.35;;;11.75;;
27847;SDS011;15212;48.830;8.730;2023-01-23T06:56:01;31.97;;;12.03;;
27847;SDS011;15212;48.830;8.730;2023-01-23T06:58:32;38.28;;;12.90;;
27847;SDS011;15212;48.830;8.730;2023-01-23T07:01:07;34.43;;;12.18;;
27847;SDS011;15212;48.830;8.730;2023-01-23T07:03:37;29.75;;;11.03;;
27847;SDS011;15212;48.830;8.730;2023-01-23T07:06:06;36.23;;;12.28;;
27847;SDS011;15212;48.830;8.730;2023-01-23T07:08:34;32.45;;;11.57;;
27847;SDS011;15212;48.830;8.730;2023-01-23T07:11:03;31.35;;;10.85;;
27847;SDS011;15212;48.830;8.730;2023-01-23T07:13:33;36.77;;;11.70;;
27847;SDS011;15212;48.830;8.730;2023-01-23T07:16:01;33.40;;;11.68;;
27847;SDS011;15212;48.830;8.730;2023-01-23T07:18:30;33.48;;;12.18;;
27847;SDS011;15212;48.830;8.730;2023-01-23T07:20:59;29.85;;;10.82;;
27847;SDS011;15212;48.830;8.730;2023-01-23T07:23:32;34.67;;;10.90;;
27847;SDS011;15212;48.830;8.730;2023-01-23T07:26:01;41.95;;;12.80;;
27847;SDS011;15212;48.830;8.730;2023-01-23T07:28:34;37.48;;;12.18;;
27847;SDS011;15212;48.830;8.730;2023-01-23T07:31:04;39.88;;;13.78;;
27847;SDS011;15212;48.830;8.730;2023-01-23T07:33:32;43.28;;;14.50;;
27847;SDS011;15212;48.830;8.730;2023-01-23T07:36:03;53.50;;;16.00;;
27847;SDS011;15212;48.830;8.730;2023-01-23T07:38:34;61.85;;;16.85;;
27847;SDS011;15212;48.830;8.730;2023-01-23T07:41:02;41.77;;;12.37;;
27847;SDS011;15212;48.830;8.730;2023-01-23T07:43:32;33.15;;;11.88;;
27847;SDS011;15212;48.830;8.730;2023-01-23T07:46:01;40.85;;;13.85;;
27847;SDS011;15212;48.830;8.730;2023-01-23T07:48:29;35.75;;;13.03;;
27847;SDS011;15212;48.830;8.730;2023-01-23T07:51:00;36.28;;;12.15;;
27847;SDS011;15212;48.830;8.730;2023-01-23T07:53:28;38.83;;;12.45;;
27847;SDS011;15212;48.830;8.730;2023-01-23T07:55:57;45.55;;;14.78;;
27847;SDS011;15212;48.830;8.730;2023-01-23T07:58:28;40.38;;;14.07;;
27847;SDS011;15212;48.830;8.730;2023-01-23T08:00:56;35.13;;;12.65;;
27847;SDS011;15212;48.830;8.730;2023-01-23T08:03:24;40.92;;;14.35;;
27847;SDS011;15212;48.830;8.730;2023-01-23T08:05:55;36.68;;;12.23;;
27847;SDS011;15212;48.830;8.730;2023-01-23T08:08:24;37.15;;;13.08;;
27847;SDS011;15212;48.830;8.730;2023-01-23T08:10:52;36.45;;;12.90;;
27847;SDS011;15212;48.830;8.730;2023-01-23T08:13:21;41.65;;;12.00;;
27847;SDS011;15212;48.830;8.730;2023-01-23T08:15:49;43.08;;;13.80;;
27847;SDS011;15212;48.830;8.730;2023-01-23T08:18:19;39.00;;;13.25;;
27847;SDS011;15212;48.830;8.730;2023-01-23T08:20:54;33.33;;;11.83;;
27847;SDS011;15212;48.830;8.730;2023-01-23T08:23:25;37.40;;;12.75;;
27847;SDS011;15212;48.830;8.730;2023-01-23T08:25:56;40.28;;;12.30;;
27847;SDS011;15212;48.830;8.730;2023-01-23T08:28:28;39.73;;;12.63;;
27847;SDS011;15212;48.830;8.730;2023-01-23T08:30:59;36.08;;;12.40;;
27847;SDS011;15212;48.830;8.730;2023-01-23T08:33:30;39.20;;;12.73;;
27847;SDS011;15212;48.830;8.730;2023-01-23T08:35:59;37.90;;;12.43;;
27847;SDS011;15212;48.830;8.730;2023-01-23T08:38:28;41.83;;;12.88;;
27847;SDS011;15212;48.830;8.730;2023-01-23T08:40:58;36.73;;;13.05;;
27847;SDS011;15212;48.830;8.730;2023-01-23T08:43:28;39.25;;;13.38;;
27847;SDS011;15212;48.830;8.730;2023-01-23T08:45:57;37.75;;;11.93;;
27847;SDS011;15212;48.830;8.730;2023-01-23T08:48:26;37.28;;;12.73;;
27847;SDS011;15212;48.830;8.730;2023-01-23T08:51:03;35.00;;;12.33;;
27847;SDS011;15212;48.830;8.730;2023-01-23T08:53:30;33.30;;;12.47;;
27847;SDS011;15212;48.830;8.730;2023-01-23T08:56:09;37.98;;;12.45;;
27847;SDS011;15212;48.830;8.730;2023-01-23T08:58:36;42.10;;;13.65;;
27847;SDS011;15212;48.830;8.730;2023-01-23T09:01:04;38.38;;;12.63;;
27847;SDS011;15212;48.830;8.730;2023-01-23T09:03:38;38.23;;;12.20;;
27847;SDS011;15212;48.830;8.730;2023-01-23T09:06:08;34.65;;;11.68;;
27847;SDS011;15212;48.830;8.730;2023-01-23T09:08:38;30.77;;;11.83;;
27847;SDS011;15212;48.830;8.730;2023-01-23T09:11:07;41.88;;;13.45;;
27847;SDS011;15212;48.830;8.730;2023-01-23T09:13:37;36.17;;;12.78;;
27847;SDS011;15212;48.830;8.730;2023-01-23T09:16:06;37.93;;;13.48;;
27847;SDS011;15212;48.830;8.730;2023-01-23T09:18:35;33.63;;;12.30;;
27847;SDS011;15212;48.830;8.730;2023-01-23T09:21:07;38.42;;;13.53;;
27847;SDS011;15212;48.830;8.730;2023-01-23T09:23:37;37.25;;;12.28;;
27847;SDS011;15212;48.830;8.730;2023-01-23T09:26:06;34.10;;;11.95;;
27847;SDS011;15212;48.830;8.730;2023-01-23T09:28:38;40.08;;;13.03;;
27847;SDS011;15212;48.830;8.730;2023-01-23T09:31:09;37.42;;;12.78;;
27847;SDS011;15212;48.830;8.730;2023-01-23T09:33:39;33.00;;;11.10;;
27847;SDS011;15212;48.830;8.730;2023-01-23T09:36:08;28.83;;;11.18;;
27847;SDS011;15212;48.830;8.730;2023-01-23T09:38:37;29.10;;;10.43;;
27847;SDS011;15212;48.830;8.730;2023-01-23T09:41:09;30.48;;;11.20;;
27847;SDS011;15212;48.830;8.730;2023-01-23T09:43:51;28.30;;;10.15;;
27847;SDS011;15212;48.830;8.730;2023-01-23T09:46:42;28.27;;;10.48;;
27847;SDS011;15212;48.830;8.730;2023-01-23T09:49:24;35.35;;;11.33;;
27847;SDS011;15212;48.830;8.730;2023-01-23T09:52:25;30.92;;;10.25;;
27847;SDS011;15212;48.830;8.730;2023-01-23T09:55:12;28.20;;;10.78;;
27847;SDS011;15212;48.830;8.730;2023-01-23T09:57:57;26.45;;;9.60;;
27847;SDS011;15212;48.830;8.730;2023-01-23T10:00:32;26.80;;;9.98;;
27847;SDS011;15212;48.830;8.730;2023-01-23T10:03:09;27.87;;;9.90;;
27847;SDS011;15212;48.830;8.730;2023-01-23T10:05:55;29.20;;;9.48;;
27847;SDS011;15212;48.830;8.730;2023-01-23T10:08:35;26.05;;;10.32;;
27847;SDS011;15212;48.830;8.730;2023-01-23T10:11:16;23.85;;;9.33;;
27847;SDS011;15212;48.830;8.730;2023-01-23T10:20:32;20.85;;;8.75;;
27847;SDS011;15212;48.830;8.730;2023-01-23T10:23:21;25.37;;;8.60;;
27847;SDS011;15212;48.830;8.730;2023-01-23T10:26:15;26.30;;;10.28;;
27847;SDS011;15212;48.830;8.730;2023-01-23T10:28:57;26.42;;;9.48;;
27847;SDS011;15212;48.830;8.730;2023-01-23T10:31:34;25.55;;;9.18;;
27847;SDS011;15212;48.830;8.730;2023-01-23T10:34:10;29.27;;;9.60;;
27847;SDS011;15212;48.830;8.730;2023-01-23T10:36:53;29.70;;;10.00;;
27847;SDS011;15212;48.830;8.730;2023-01-23T10:42:32;29.40;;;9.55;;
27847;SDS011;15212;48.830;8.730;2023-01-23T10:45:01;26.85;;;9.75;;
27847;SDS011;15212;48.830;8.730;2023-01-23T10:50:19;24.82;;;10.35;;
27847;SDS011;15212;48.830;8.730;2023-01-23T10:53:06;30.48;;;11.12;;
27847;SDS011;15212;48.830;8.730;2023-01-23T10:55:38;32.53;;;11.28;;
27847;SDS011;15212;48.830;8.730;2023-01-23T10:58:20;29.10;;;10.95;;
27847;SDS011;15212;48.830;8.730;2023-01-23T11:01:01;30.45;;;11.10;;
27847;SDS011;15212;48.830;8.730;2023-01-23T11:03:33;33.00;;;10.00;;
27847;SDS011;15212;48.830;8.730;2023-01-23T11:06:06;37.73;;;11.15;;
27847;SDS011;15212;48.830;8.730;2023-01-23T11:08:37;27.98;;;11.15;;
27847;SDS011;15212;48.830;8.730;2023-01-23T11:13:48;36.28;;;11.20;;
27847;SDS011;15212;48.830;8.730;2023-01-23T11:16:32;33.55;;;12.00;;
27847;SDS011;15212;48.830;8.730;2023-01-23T11:19:09;30.85;;;11.33;;
27847;SDS011;15212;48.830;8.730;2023-01-23T11:27:02;37.83;;;12.18;;
27847;SDS011;15212;48.830;8.730;2023-01-23T11:30:21;30.00;;;11.70;;
27847;SDS011;15212;48.830;8.730;2023-01-23T11:32:15;33.15;;;13.20;;
27847;SDS011;15212;48.830;8.730;2023-01-23T11:34:49;32.75;;;11.53;;
27847;SDS011;15212;48.830;8.730;2023-01-23T11:37:35;31.42;;;11.75;;
27847;SDS011;15212;48.830;8.730;2023-01-23T11:40:10;34.48;;;11.97;;
27847;SDS011;15212;48.830;8.730;2023-01-23T11:42:37;32.40;;;11.50;;
27847;SDS011;15212;48.830;8.730;2023-01-23T11:45:12;32.05;;;12.68;;
27847;SDS011;15212;48.830;8.730;2023-01-23T11:47:59;30.62;;;11.25;;
27847;SDS011;15212;48.830;8.730;2023-01-23T11:50:39;36.73;;;11.60;;
27847;SDS011;15212;48.830;8.730;2023-01-23T11:53:24;29.67;;;10.93;;
27847;SDS011;15212;48.830;8.730;2023-01-23T12:05:20;28.95;;;10.68;;
27847;SDS011;15212;48.830;8.730;2023-01-23T12:08:08;29.45;;;11.18;;
27847;SDS011;15212;48.830;8.730;2023-01-23T12:13:45;26.42;;;10.35;;
27847;SDS011;15212;48.830;8.730;2023-01-23T12:16:52;27.95;;;10.78;;
27847;SDS011;15212;48.830;8.730;2023-01-23T12:19:44;28.83;;;10.58;;
27847;SDS011;15212;48.830;8.730;2023-01-23T12:22:29;29.48;;;10.28;;
27847;SDS011;15212;48.830;8.730;2023-01-23T12:25:22;30.50;;;10.80;;
27847;SDS011;15212;48.830;8.730;2023-01-23T12:34:12;36.88;;;11.18;;
27847;SDS011;15212;48.830;8.730;2023-01-23T12:37:19;27.45;;;10.70;;
27847;SDS011;15212;48.830;8.730;2023-01-23T12:40:15;29.00;;;10.53;;
27847;SDS011;15212;48.830;8.730;2023-01-23T12:42:52;28.85;;;11.55;;
27847;SDS011;15212;48.830;8.730;2023-01-23T12:45:29;25.70;;;10.43;;
27847;SDS011;15212;48.830;8.730;2023-01-23T12:48:05;31.35;;;11.28;;
27847;SDS011;15212;48.830;8.730;2023-01-23T12:50:42;33.85;;;11.88;;
27847;SDS011;15212;48.830;8.730;2023-01-23T12:55:51;26.23;;;9.85;;
27847;SDS011;15212;48.830;8.730;2023-01-23T12:58:25;28.05;;;10.88;;
27847;SDS011;15212;48.830;8.730;2023-01-23T13:01:04;28.38;;;10.68;;
27847;SDS011;15212;48.830;8.730;2023-01-23T13:12:52;28.45;;;10.10;;
27847;SDS011;15212;48.830;8.730;2023-01-23T13:15:29;36.20;;;13.13;;
27847;SDS011;15212;48.830;8.730;2023-01-23T13:18:00;31.23;;;12.03;;
27847;SDS011;15212;48.830;8.730;2023-01-23T13:20:31;29.80;;;10.30;;
27847;SDS011;15212;48.830;8.730;2023-01-23T13:28:48;42.08;;;13.03;;
27847;SDS011;15212;48.830;8.730;2023-01-23T13:36:50;48.42;;;14.53;;
27847;SDS011;15212;48.830;8.730;2023-01-23T13:39:21;41.98;;;12.98;;
27847;SDS011;15212;48.830;8.730;2023-01-23T13:51:23;31.52;;;9.78;;
27847;SDS011;15212;48.830;8.730;2023-01-23T13:53:51;28.87;;;10.72;;
27847;SDS011;15212;48.830;8.730;2023-01-23T13:56:38;33.55;;;11.40;;
27847;SDS011;15212;48.830;8.730;2023-01-23T13:59:13;37.78;;;12.98;;
27847;SDS011;15212;48.830;8.730;2023-01-23T14:05:11;30.82;;;11.57;;
27847;SDS011;15212;48.830;8.730;2023-01-23T14:08:00;37.17;;;12.03;;
27847;SDS011;15212;48.830;8.730;2023-01-23T14:10:34;43.92;;;13.70;;
27847;SDS011;15212;48.830;8.730;2023-01-23T14:13:09;29.10;;;10.28;;
27847;SDS011;15212;48.830;8.730;2023-01-23T14:15:39;46.30;;;14.70;;
27847;SDS011;15212;48.830;8.730;2023-01-23T14:18:45;30.23;;;10.95;;
27847;SDS011;15212;48.830;8.730;2023-01-23T14:23:58;59.98;;;22.30;;
27847;SDS011;15212;48.830;8.730;2023-01-23T14:26:29;28.77;;;11.33;;
27847;SDS011;15212;48.830;8.730;2023-01-23T14:29:02;28.70;;;12.43;;
27847;SDS011;15212;48.830;8.730;2023-01-23T14:31:48;34.85;;;12.25;;
27847;SDS011;15212;48.830;8.730;2023-01-23T14:34:18;30.27;;;11.40;;
27847;SDS011;15212;48.830;8.730;2023-01-23T14:37:01;34.92;;;11.93;;
27847;SDS011;15212;48.830;8.730;2023-01-23T14:39:34;34.08;;;13.50;;
27847;SDS011;15212;48.830;8.730;2023-01-23T14:42:03;37.03;;;12.50;;
27847;SDS011;15212;48.830;8.730;2023-01-23T14:44:34;27.77;;;11.12;;
27847;SDS011;15212;48.830;8.730;2023-01-23T14:47:14;29.90;;;11.73;;
27847;SDS011;15212;48.830;8.730;2023-01-23T14:49:49;31.97;;;10.55;;
27847;SDS011;15212;48.830;8.730;2023-01-23T14:52:24;26.80;;;9.90;;
27847;SDS011;15212;48.830;8.730;2023-01-23T14:54:55;37.65;;;11.90;;
27847;SDS011;15212;48.830;8.730;2023-01-23T14:57:25;37.53;;;13.18;;
27847;SDS011;15212;48.830;8.730;2023-01-23T14:59:55;38.00;;;12.80;;
27847;SDS011;15212;48.830;8.730;2023-01-23T15:02:31;33.05;;;11.88;;
27847;SDS011;15212;48.830;8.730;2023-01-23T15:05:20;35.08;;;13.72;;
27847;SDS011;15212;48.830;8.730;2023-01-23T15:08:03;25.90;;;10.58;;
27847;SDS011;15212;48.830;8.730;2023-01-23T15:10:48;29.90;;;10.93;;
27847;SDS011;15212;48.830;8.730;2023-01-23T15:13:27;32.98;;;11.48;;
27847;SDS011;15212;48.830;8.730;2023-01-23T15:15:57;36.25;;;11.75;;
27847;SDS011;15212;48.830;8.730;2023-01-23T15:18:30;32.28;;;12.07;;
27847;SDS011;15212;48.830;8.730;2023-01-23T15:21:05;36.35;;;12.30;;
27847;SDS011;15212;48.830;8.730;2023-01-23T15:23:40;37.23;;;13.45;;
27847;SDS011;15212;48.830;8.730;2023-01-23T15:26:24;33.48;;;11.70;;
27847;SDS011;15212;48.830;8.730;2023-01-23T15:34:24;31.87;;;11.60;;
27847;SDS011;15212;48.830;8.730;2023-01-23T15:39:50;32.23;;;11.12;;
27847;SDS011;15212;48.830;8.730;2023-01-23T15:42:30;28.55;;;10.58;;
27847;SDS011;15212;48.830;8.730;2023-01-23T15:45:00;33.15;;;11.38;;
27847;SDS011;15212;48.830;8.730;2023-01-23T15:47:32;34.45;;;12.03;;
27847;SDS011;15212;48.830;8.730;2023-01-23T15:50:01;33.78;;;11.43;;
27847;SDS011;15212;48.830;8.730;2023-01-23T15:52:44;32.95;;;12.25;;
27847;SDS011;15212;48.830;8.730;2023-01-23T15:55:08;31.37;;;12.88;;
27847;SDS011;15212;48.830;8.730;2023-01-23T15:57:36;32.15;;;12.75;;
27847;SDS011;15212;48.830;8.730;2023-01-23T16:02:45;30.20;;;11.50;;
27847;SDS011;15212;48.830;8.730;2023-01-23T16:05:17;32.08;;;11.93;;
27847;SDS011;15212;48.830;8.730;2023-01-23T16:07:48;27.90;;;11.22;;
27847;SDS011;15212;48.830;8.730;2023-01-23T16:10:18;32.30;;;12.63;;
27847;SDS011;15212;48.830;8.730;2023-01-23T16:12:53;22.65;;;10.08;;
27847;SDS011;15212;48.830;8.730;2023-01-23T16:15:25;29.67;;;11.18;;
27847;SDS011;15212;48.830;8.730;2023-01-23T16:17:59;37.42;;;12.58;;
27847;SDS011;15212;48.830;8.730;2023-01-23T16:20:31;31.20;;;11.60;;
27847;SDS011;15212;48.830;8.730;2023-01-23T16:23:04;30.55;;;10.80;;
27847;SDS011;15212;48.830;8.730;2023-01-23T16:25:39;27.35;;;12.13;;
27847;SDS011;15212;48.830;8.730;2023-01-23T16:28:15;29.23;;;11.45;;
27847;SDS011;15212;48.830;8.730;2023-01-23T16:30:51;29.50;;;10.55;;
27847;SDS011;15212;48.830;8.730;2023-01-23T16:33:20;33.83;;;12.15;;